KOPF/OPF METAR and TAF weather

Enter ICAO airport designator
Station Type Date Time Source
KOPF METAR 2020/09/28 07:53 UTC NOAA

KOPF 280753Z AUTO 00000KT 10SM FEW020 26/24 A2987 RMK AO2 SLP116 T02610239


Station Type Date Time Source
KOPF Decoded METAR 2020/09/28 07:53 UTC NOAA

MIAMI OPA LOCKA AIRPORT, FL, United States (KOPF) 25-54N 80-17W 16M
Sep 28, 2020 - 03:53 AM EDT / 2020.09.28 0753 UTC
Wind: Calm:0
Visibility: 10 mile(s):0
Sky conditions: mostly clear
Temperature: 79.0 F (26.1 C)
Dew Point: 75.0 F (23.9 C)
Relative Humidity: 87%
Pressure (altimeter): 29.87 in. Hg (1011 hPa)
ob: KOPF 280753Z AUTO 00000KT 10SM FEW020 26/24 A2987 RMK AO2 SLP116 T02610239
cycle: 8

Station Type Date Time Source
KOPF TAF 2020/09/28 06:40 UTC NOAA

TAF KOPF 280538Z 2806/2906 VRB03KT P6SM SCT250
FM281600 14010KT P6SM VCSH SCT025 BKN050 PROB30 2817/2823 VRB10G30KT 3SM TSRA SCT025CB BKN035
FM290100 VRB03KT P6SM SCT025 SCT250
AMD NOT SKED 2806/2809

Example: see airport list